Terminal Aerodrome Forecast
Issued by NWS

Home | Current Version | Previous Version | Text Only | Print | Product List | Glossary Off
Versions: 1 2 3 4 5 6 7 8 9 10 11 12 13 14 15 16 17 18 19 20 21 22 23 24

000
FTUS42 KMHX 171335 AAA
TAFPGV
TAF AMD
KPGV 171335Z 1714/1812 09010G15KT P6SM SCT060 OVC070
     FM171700 09008KT P6SM VCSH OVC035
     FM172000 10005KT P6SM -RADZ OVC007
     FM180000 00000KT 4SM -DZ OVC005
     FM180300 32003KT 4SM -DZ OVC003
     FM180900 32005KT P6SM BKN007
      AMD LTD TO CLD VIS AND WIND=

USA.gov is the U.S. government's official web portal to all federal, state and local government web resources and services.